Time;durP1;ratioP1;P1;durP2;ratioP2;P2;SDS_P1;SDS_P2;PMS_P1;PMS_P2;Temp;Humidity;BMP_temperature;BMP_pressure;BME280_temperature;BME280_humidity;BME280_pressure;Samples;Min_cycle;Max_cycle;Signal;HPM_P1;HPM_P2
2023/06/30 00:01:36;;;;;;;;;;;;;;;18.99;100.00;101001.47;5034273;28;19909;-73
2023/06/30 00:04:02;;;;;;;;;;;;;;;19.46;100.00;100614.91;5035362;28;20355;-73
2023/06/30 00:06:27;;;;;;;;;;;;;;;19.15;100.00;100704.25;5034032;28;19909;-74
2023/06/30 00:11:55;;;;;;;;;;;;;;;19.26;100.00;102603.81;5035557;28;19931;-73
2023/06/30 00:17:23;;;;;;;;;;;;;;;19.26;100.00;103088.91;5035456;28;19943;-73
2023/06/30 00:19:50;;;;;;;;;;;;;;;19.13;100.00;103151.88;5034323;28;20352;-74
2023/06/30 00:22:19;;;;;;;;;;;;;;;19.20;100.00;103266.16;5034410;28;19999;-74
2023/06/30 00:24:45;;;;;;;;;;;;;;;18.73;100.00;103411.03;5034394;28;19909;-74
2023/06/30 00:27:10;;;;;;;;;;;;;;;18.96;100.00;103629.28;5035618;28;19909;-74
2023/06/30 00:29:35;;;;;;;;;;;;;;;18.94;100.00;103870.91;5017480;28;19913;-73
2023/06/30 00:32:01;;;;;;;;;;;;;;;18.76;100.00;103930.22;5034295;28;19913;-74
2023/06/30 00:34:26;;;;;;;;;;;;;;;18.62;100.00;104041.94;5035425;28;19916;-74
2023/06/30 00:36:51;;;;;;;;;;;;;;;18.69;100.00;100740.06;5034667;28;20367;-77
2023/06/30 00:39:17;;;;;;;;;;;;;;;18.47;100.00;100850.19;5035272;28;19909;-75
2023/06/30 00:41:42;;;;;;;;;;;;;;;18.39;100.00;100884.88;5033747;28;19960;-75
2023/06/30 00:44:07;;;;;;;;;;;;;;;18.39;100.00;101107.19;5035317;28;19966;-75
2023/06/30 00:49:35;;;;;;;;;;;;;;;18.62;100.00;101019.50;5035558;28;19955;-76
2023/06/30 00:52:01;;;;;;;;;;;;;;;18.42;100.00;100938.84;5035326;28;19909;-76
2023/06/30 00:54:26;;;;;;;;;;;;;;;18.30;100.00;100887.88;5033522;28;19920;-76
2023/06/30 00:56:52;;;;;;;;;;;;;;;18.18;100.00;100825.72;5033252;28;19920;-76
2023/06/30 01:02:22;;;;;;;;;;;;;;;18.19;100.00;100643.81;5034863;28;20404;-75
2023/06/30 01:04:54;;;;;;;;;;;;;;;18.14;100.00;100592.53;5033538;28;19936;-75
2023/06/30 01:07:34;;;;;;;;;;;;;;;18.10;100.00;100580.72;5033183;28;19996;-75
2023/06/30 01:10:08;;;;;;;;;;;;;;;18.07;100.00;100876.03;5034725;28;19944;-75
2023/06/30 01:12:34;;;;;;;;;;;;;;;17.93;100.00;100920.38;5033594;28;20351;-74
2023/06/30 01:14:59;;;;;;;;;;;;;;;18.04;100.00;100954.22;5035065;28;19913;-76
2023/06/30 01:17:25;;;;;;;;;;;;;;;18.07;100.00;100969.53;5034499;28;19915;-73
2023/06/30 01:19:53;;;;;;;;;;;;;;;17.87;100.00;100990.13;5034452;28;19952;-76
2023/06/30 01:22:21;;;;;;;;;;;;;;;17.95;100.00;101034.38;5033408;28;20360;-73
2023/06/30 01:24:47;;;;;;;;;;;;;;;17.73;100.00;101036.16;5015959;28;19979;-76
2023/06/30 01:30:15;;;;;;;;;;;;;;;17.98;100.00;101100.34;5034555;28;20421;-75
2023/06/30 01:35:44;;;;;;;;;;;;;;;18.03;100.00;101106.13;5034158;28;19919;-74
2023/06/30 01:38:09;;;;;;;;;;;;;;;17.98;100.00;101120.94;5032342;28;20330;-74
2023/06/30 01:40:34;;;;;;;;;;;;;;;18.09;100.00;101139.34;5032725;28;19936;-75
2023/06/30 01:43:00;;;;;;;;;;;;;;;17.89;100.00;101157.31;5028685;28;19913;-73
2023/06/30 01:48:28;;;;;;;;;;;;;;;17.93;100.00;101174.31;5014339;28;20012;-74
2023/06/30 01:50:55;;;;;;;;;;;;;;;17.96;100.00;101200.78;5013338;28;19945;-74
2023/06/30 01:53:20;;;;;;;;;;;;;;;17.96;100.00;101190.50;5014034;28;19920;-74
2023/06/30 01:55:49;;;;;;;;;;;;;;;17.77;100.00;101181.78;5028793;28;20004;-75
2023/06/30 01:58:17;;;;;;;;;;;;;;;17.92;100.00;101180.38;5028973;28;20358;-74
2023/06/30 02:00:42;;;;;;;;;;;;;;;17.72;100.00;101172.56;5013688;28;19952;-72
2023/06/30 02:03:08;;;;;;;;;;;;;;;17.44;100.00;101188.16;5012674;28;20351;-72
2023/06/30 02:08:36;;;;;;;;;;;;;;;17.83;100.00;101181.56;5014060;28;19960;-72
2023/06/30 02:14:04;;;;;;;;;;;;;;;17.33;100.00;101198.81;5013595;28;19915;-72
2023/06/30 02:16:29;;;;;;;;;;;;;;;17.24;100.00;101204.31;5013420;28;19925;-74
2023/06/30 02:18:54;;;;;;;;;;;;;;;17.73;100.00;101205.09;5013750;28;20360;-76
2023/06/30 02:21:20;;;;;;;;;;;;;;;17.83;100.00;101214.16;5013316;28;20003;-75
2023/06/30 02:26:48;;;;;;;;;;;;;;;17.53;100.00;101207.59;5013770;28;19972;-75
2023/06/30 02:29:14;;;;;;;;;;;;;;;17.66;100.00;101213.97;5028587;28;19913;-74
2023/06/30 02:31:39;;;;;;;;;;;;;;;17.55;100.00;101219.50;5012540;28;20375;-75
2023/06/30 02:34:04;;;;;;;;;;;;;;;17.35;100.00;101227.91;5011930;28;19967;-75
2023/06/30 02:36:29;;;;;;;;;;;;;;;17.60;100.00;101215.03;5028247;28;20354;-74
2023/06/30 02:41:58;;;;;;;;;;;;;;;17.45;100.00;101225.00;5013965;28;20482;-75
2023/06/30 02:47:41;;;;;;;;;;;;;;;17.74;100.00;101233.38;5013765;28;19912;-74
2023/06/30 02:50:06;;;;;;;;;;;;;;;17.56;100.00;101228.06;5013392;28;20392;-75
2023/06/30 02:52:32;;;;;;;;;;;;;;;17.65;100.00;101243.97;5013003;28;19909;-74
2023/06/30 02:54:57;;;;;;;;;;;;;;;17.47;100.00;101246.38;5028188;28;19916;-75
2023/06/30 03:00:25;;;;;;;;;;;;;;;17.68;100.00;101240.47;5014974;28;19924;-75
2023/06/30 03:02:50;;;;;;;;;;;;;;;17.69;100.00;101247.31;5013343;28;19918;-74
2023/06/30 03:05:16;;;;;;;;;;;;;;;17.71;100.00;101250.63;5027805;28;19913;-74
2023/06/30 03:07:41;;;;;;;;;;;;;;;17.33;100.00;101250.25;5013346;28;19964;-77
2023/06/30 03:13:09;;;;;;;;;;;;;;;17.57;100.00;101248.56;5013838;28;19999;-74
2023/06/30 03:18:37;;;;;;;;;;;;;;;17.96;100.00;101251.41;5013876;28;20382;-75
2023/06/30 03:24:05;;;;;;;;;;;;;;;17.57;100.00;101251.13;5013803;28;20005;-75
2023/06/30 03:26:30;;;;;;;;;;;;;;;17.51;100.00;101253.94;5012251;28;19948;-74
2023/06/30 03:28:55;;;;;;;;;;;;;;;17.61;100.00;101264.75;5030034;28;20020;-74
2023/06/30 03:31:22;;;;;;;;;;;;;;;17.54;100.00;101260.69;5018095;28;19921;-75
2023/06/30 03:36:50;;;;;;;;;;;;;;;17.80;100.00;101265.75;5016613;28;19955;-74
2023/06/30 03:39:16;;;;;;;;;;;;;;;17.62;100.00;101268.97;5015144;28;19948;-74
2023/06/30 03:41:41;;;;;;;;;;;;;;;17.77;100.00;101274.41;5015628;28;19909;-75
2023/06/30 03:47:15;;;;;;;;;;;;;;;17.94;100.00;101263.50;5036754;28;20015;-76
2023/06/30 03:52:43;;;;;;;;;;;;;;;18.09;100.00;101258.59;5036720;28;19955;-76
2023/06/30 03:55:08;;;;;;;;;;;;;;;18.14;100.00;101259.25;5036090;28;19909;-75
2023/06/30 03:57:33;;;;;;;;;;;;;;;18.06;100.00;101257.88;5036486;28;19909;-76
2023/06/30 03:59:59;;;;;;;;;;;;;;;18.10;100.00;101264.59;5035804;28;19916;-76
2023/06/30 04:05:27;;;;;;;;;;;;;;;18.19;100.00;101259.09;5036334;28;20441;-76
2023/06/30 04:10:55;;;;;;;;;;;;;;;18.66;100.00;101257.25;5036380;28;19968;-76
2023/06/30 04:13:20;;;;;;;;;;;;;;;18.52;100.00;101262.94;5034689;28;19916;-75
2023/06/30 04:15:45;;;;;;;;;;;;;;;18.38;100.00;101266.94;5034726;28;19909;-75
2023/06/30 04:18:11;;;;;;;;;;;;;;;18.88;100.00;101269.19;5035425;28;19960;-74
2023/06/30 04:23:40;;;;;;;;;;;;;;;18.85;100.00;101271.91;5044569;28;19960;-73
2023/06/30 04:26:05;;;;;;;;;;;;;;;18.93;100.00;101284.47;5037485;28;20268;-73
2023/06/30 04:28:30;;;;;;;;;;;;;;;19.16;100.00;101286.91;5035574;28;19951;-73
2023/06/30 04:30:58;;;;;;;;;;;;;;;19.22;100.00;101286.66;5035807;28;19909;-73
2023/06/30 04:33:23;;;;;;;;;;;;;;;19.15;100.00;101284.41;5017691;28;19909;-75
2023/06/30 04:35:48;;;;;;;;;;;;;;;19.38;100.00;101289.44;5034065;28;19917;-75
2023/06/30 04:38:14;;;;;;;;;;;;;;;19.15;100.00;101281.81;5034311;28;19916;-76
2023/06/30 04:40:39;;;;;;;;;;;;;;;19.01;100.00;101287.56;5035882;28;19964;-74
2023/06/30 04:46:14;;;;;;;;;;;;;;;19.12;100.00;101275.06;5022891;28;20378;-76
2023/06/30 04:51:42;;;;;;;;;;;;;;;19.96;100.00;101267.91;5035776;28;19963;-75
2023/06/30 04:54:08;;;;;;;;;;;;;;;20.12;100.00;101278.34;5017475;28;19916;-77
2023/06/30 04:56:33;;;;;;;;;;;;;;;20.16;100.00;101269.56;5034104;28;20363;-83
2023/06/30 05:02:01;;;;;;;;;;;;;;;19.64;100.00;101264.19;5036287;28;19963;-80
2023/06/30 05:04:26;;;;;;;;;;;;;;;20.70;100.00;101279.84;5034281;28;20017;-81
2023/06/30 05:06:52;;;;;;;;;;;;;;;20.42;100.00;101267.44;5035726;28;20351;-85
2023/06/30 05:09:18;;;;;;;;;;;;;;;20.62;100.00;101262.13;5034634;28;19968;-84
2023/06/30 05:14:47;;;;;;;;;;;;;;;20.39;100.00;101259.84;5036211;28;20321;-76
2023/06/30 05:17:12;;;;;;;;;;;;;;;21.00;100.00;101256.81;5034118;28;19913;-74
2023/06/30 05:19:37;;;;;;;;;;;;;;;20.81;100.00;101249.16;5033977;28;19909;-78
2023/06/30 05:22:03;;;;;;;;;;;;;;;21.04;100.00;101242.84;5035369;28;19965;-78
2023/06/30 05:27:31;;;;;;;;;;;;;;;21.18;100.00;101222.28;5035317;28;20011;-81
2023/06/30 05:29:56;;;;;;;;;;;;;;;21.32;100.00;101212.91;5033614;28;20016;-78
2023/06/30 05:35:25;;;;;;;;;;;;;;;22.02;100.00;101178.03;5035265;28;19928;-81
2023/06/30 05:37:50;;;;;;;;;;;;;;;22.14;100.00;101162.66;5035290;28;19935;-81
2023/06/30 05:40:16;;;;;;;;;;;;;;;21.38;100.00;101103.03;5035273;28;19913;-78
2023/06/30 05:42:41;;;;;;;;;;;;;;;21.58;100.00;101044.09;5033559;28;19909;-81
2023/06/30 05:48:09;;;;;;;;;;;;;;;22.49;100.00;100976.53;5020676;28;19971;-78
2023/06/30 05:53:37;;;;;;;;;;;;;;;22.10;100.00;100992.75;5034872;28;19955;-78
2023/06/30 05:56:03;;;;;;;;;;;;;;;22.70;100.00;100995.19;5033896;28;19909;-78
2023/06/30 05:58:28;;;;;;;;;;;;;;;23.15;100.00;100950.75;5033255;28;20450;-77
2023/06/30 06:00:53;;;;;;;;;;;;;;;23.17;100.00;100834.72;5034791;28;19908;-77
2023/06/30 06:03:18;;;;;;;;;;;;;;;22.75;100.00;100889.38;5035108;28;19995;-75
2023/06/30 06:08:46;;;;;;;;;;;;;;;23.23;100.00;101060.13;5034510;28;19911;-81
2023/06/30 06:11:12;;;;;;;;;;;;;;;23.25;100.00;101209.63;5034421;28;20355;-80
2023/06/30 06:13:37;;;;;;;;;;;;;;;23.53;100.00;101626.94;5034355;28;19916;-78
2023/06/30 06:16:03;;;;;;;;;;;;;;;24.18;100.00;102202.25;5033271;28;19955;-79
2023/06/30 06:21:31;;;;;;;;;;;;;;;23.16;100.00;104216.16;5034066;28;19927;-83
2023/06/30 06:26:59;;;;;;;;;;;;;;;24.50;100.00;103778.56;5035036;28;19959;-77
2023/06/30 06:29:25;;;;;;;;;;;;;;;24.07;100.00;102977.66;5032965;28;19909;-76
2023/06/30 06:31:51;;;;;;;;;;;;;;;24.36;100.00;102742.47;5033487;28;19955;-76
2023/06/30 06:34:19;;;;;;;;;;;;;;;24.24;100.00;102587.75;5035329;28;19916;-78
2023/06/30 06:36:45;;;;;;;;;;;;;;;24.50;100.00;102530.19;5034731;28;20044;-78
2023/06/30 06:39:11;;;;;;;;;;;;;;;24.32;100.00;102390.56;5032442;28;19985;-77
2023/06/30 06:41:36;;;;;;;;;;;;;;;25.05;100.00;102395.72;5033193;28;19975;-78
2023/06/30 06:44:02;;;;;;;;;;;;;;;24.76;100.00;102295.59;5032733;28;19996;-78
2023/06/30 06:49:33;;;;;;;;;;;;;;;25.08;100.00;102218.44;5013645;28;19975;-81
2023/06/30 06:51:58;;;;;;;;;;;;;;;24.57;100.00;102153.44;4993309;28;19914;-79
2023/06/30 06:54:23;;;;;;;;;;;;;;;26.32;100.00;102220.28;4993656;28;19920;-79
2023/06/30 06:56:50;;;;;;;;;;;;;;;25.51;100.00;102108.41;5009544;28;19951;-83
2023/06/30 07:02:19;;;;;;;;;;;;;;;26.18;100.00;101979.38;4995110;28;20001;-76
2023/06/30 07:04:44;;;;;;;;;;;;;;;26.11;100.00;101931.94;5012957;28;19956;-78
2023/06/30 07:07:09;;;;;;;;;;;;;;;26.17;100.00;101850.72;4997175;28;20017;-75
2023/06/30 07:09:34;;;;;;;;;;;;;;;26.45;100.00;101795.00;4997822;28;20352;-75
2023/06/30 07:12:00;;;;;;;;;;;;;;;25.04;100.00;101680.53;4996094;28;19910;-74
2023/06/30 07:17:28;;;;;;;;;;;;;;;25.99;100.00;101687.53;4997561;28;19913;-75
2023/06/30 07:19:53;;;;;;;;;;;;;;;26.45;100.00;101685.38;4997448;28;20335;-75
2023/06/30 07:22:20;;;;;;;;;;;;;;;26.64;100.00;101667.56;4997231;28;19917;-74
2023/06/30 07:24:46;;;;;;;;;;;;;;;25.76;100.00;101605.63;5012693;28;20241;-74
2023/06/30 07:30:14;;;;;;;;;;;;;;;26.53;100.00;101591.75;4997942;28;19957;-75
2023/06/30 07:32:39;;;;;;;;;;;;;;;26.79;100.00;101554.28;4996808;28;19905;-75
2023/06/30 07:35:04;;;;;;;;;;;;;;;26.92;100.00;101483.75;5012220;28;19945;-76
2023/06/30 07:37:30;;;;;;;;;;;;;;;27.20;100.00;101491.22;4996751;28;19906;-75
2023/06/30 07:42:58;;;;;;;;;;;;;;;27.20;100.00;101407.63;4997090;28;19921;-75
2023/06/30 07:45:23;;;;;;;;;;;;;;;26.00;100.00;101324.16;4995333;28;19914;-75
2023/06/30 07:47:49;;;;;;;;;;;;;;;26.27;100.00;101321.38;4995969;28;20379;-75
2023/06/30 07:50:14;;;;;;;;;;;;;;;26.31;100.00;101286.31;5000563;28;19995;-74
2023/06/30 07:52:42;;;;;;;;;;;;;;;27.38;100.00;101313.06;5031839;28;19921;-76
2023/06/30 07:58:10;;;;;;;;;;;;;;;27.66;100.00;101204.56;5018444;28;19924;-74
2023/06/30 08:00:35;;;;;;;;;;;;;;;27.79;100.00;101176.47;5049930;28;19913;-74
2023/06/30 08:03:00;;;;;;;;;;;;;;;27.28;100.00;101107.44;5034475;28;19908;-74
2023/06/30 08:05:26;;;;;;;;;;;;;;;27.84;100.00;101047.97;5033169;28;19924;-75
2023/06/30 08:07:51;;;;;;;;;;;;;;;27.66;100.00;100971.91;5034546;28;19980;-75
2023/06/30 08:10:17;;;;;;;;;;;;;;;27.81;100.00;100844.28;5033492;28;19931;-75
2023/06/30 08:12:42;;;;;;;;;;;;;;;27.80;100.00;100764.19;5049932;28;19909;-75
2023/06/30 08:15:07;;;;;;;;;;;;;;;28.27;100.00;100722.44;5032857;28;19916;-75
2023/06/30 08:17:53;;;;;;;;;;;;;;;28.68;100.00;100697.75;5034455;28;20386;-75
2023/06/30 08:20:18;;;;;;;;;;;;;;;27.41;100.00;100651.69;5033598;28;19988;-75
2023/06/30 08:22:44;;;;;;;;;;;;;;;28.18;100.00;100584.63;5049312;28;19952;-75
2023/06/30 08:25:09;;;;;;;;;;;;;;;28.61;100.00;100539.63;5034076;28;19916;-74
2023/06/30 08:27:45;;;;;;;;;;;;;;;28.76;100.00;100519.81;5034587;28;19909;-74
2023/06/30 08:30:10;;;;;;;;;;;;;;;28.96;100.00;100544.16;5049263;28;19909;-75
2023/06/30 08:32:36;;;;;;;;;;;;;;;28.48;100.00;100554.81;5049644;28;19931;-76
2023/06/30 08:35:01;;;;;;;;;;;;;;;27.95;100.00;100556.31;5033732;28;19908;-76
2023/06/30 08:37:26;;;;;;;;;;;;;;;28.91;100.00;100565.53;5049582;28;19909;-75
2023/06/30 08:39:52;;;;;;;;;;;;;;;29.06;100.00;100550.13;5032647;28;20274;-75
2023/06/30 08:42:19;;;;;;;;;;;;;;;29.03;100.00;100555.66;5049035;28;19960;-76
2023/06/30 08:45:07;;;;;;;;;;;;;;;28.72;100.00;100551.69;5049904;28;19909;-76
2023/06/30 08:47:34;;;;;;;;;;;;;;;28.94;100.00;100546.09;5041645;28;19916;-75
2023/06/30 08:50:00;;;;;;;;;;;;;;;28.62;100.00;100527.34;5052947;28;19909;-76
2023/06/30 08:52:26;;;;;;;;;;;;;;;28.26;100.00;100516.72;5066520;28;19920;-76
2023/06/30 08:54:51;;;;;;;;;;;;;;;29.31;100.00;100518.00;5036972;28;19909;-76
2023/06/30 08:57:17;;;;;;;;;;;;;;;29.04;100.00;100507.53;5036263;28;19913;-81
2023/06/30 08:59:43;;;;;;;;;;;;;;;28.57;100.00;100493.75;5032926;28;20268;-76
2023/06/30 09:02:28;;;;;;;;;;;;;;;28.19;100.00;100479.00;5049111;28;19920;-76
2023/06/30 09:04:54;;;;;;;;;;;;;;;28.07;100.00;100474.91;5048737;28;19921;-76
2023/06/30 09:07:37;;;;;;;;;;;;;;;28.49;100.00;100484.94;5045468;28;19988;-77
2023/06/30 09:10:03;;;;;;;;;;;;;;;28.13;100.00;100468.28;5053531;28;19961;-76
2023/06/30 09:12:29;;;;;;;;;;;;;;;28.75;100.00;100468.44;5053524;28;19908;-76
2023/06/30 09:14:56;;;;;;;;;;;;;;;29.17;100.00;100470.53;5052761;28;19909;-75
2023/06/30 09:17:37;;;;;;;;;;;;;;;28.68;100.00;100443.81;5052836;28;19912;-76
2023/06/30 09:20:03;;;;;;;;;;;;;;;28.85;100.00;100440.41;5054064;28;19913;-75
2023/06/30 09:22:28;;;;;;;;;;;;;;;29.55;100.00;100436.13;5049674;28;20054;-75
2023/06/30 09:24:53;;;;;;;;;;;;;;;28.45;100.00;100424.22;5051897;28;19909;-75
2023/06/30 09:27:19;;;;;;;;;;;;;;;28.00;100.00;100428.56;5050468;28;19904;-74
2023/06/30 09:29:54;;;;;;;;;;;;;;;29.25;100.00;100428.69;5033305;28;19909;-76
2023/06/30 09:32:43;;;;;;;;;;;;;;;29.49;100.00;100415.78;5050719;28;20337;-75
2023/06/30 09:35:12;;;;;;;;;;;;;;;29.98;100.00;100416.91;5052979;28;19908;-74
2023/06/30 09:40:50;;;;;;;;;;;;;;;27.93;100.00;100381.19;5051299;28;19919;-77
2023/06/30 09:43:19;;;;;;;;;;;;;;;29.74;100.00;100394.84;5046699;28;19919;-74
2023/06/30 09:45:55;;;;;;;;;;;;;;;28.35;100.00;100365.88;5032627;28;20019;-72
2023/06/30 09:48:20;;;;;;;;;;;;;;;29.73;100.00;100385.31;5047386;28;19908;-76
2023/06/30 09:50:45;;;;;;;;;;;;;;;29.82;100.00;100367.81;5030339;28;20410;-73
2023/06/30 09:53:11;;;;;;;;;;;;;;;29.37;100.00;100370.66;5013358;28;19909;-73
2023/06/30 09:55:47;;;;;;;;;;;;;;;29.39;100.00;100370.47;5029834;28;20291;-75
2023/06/30 09:58:13;;;;;;;;;;;;;;;28.96;100.00;100352.94;5049526;28;20003;-76
2023/06/30 10:00:39;;;;;;;;;;;;;;;29.52;100.00;100356.00;5048523;28;19992;-74
2023/06/30 10:03:05;;;;;;;;;;;;;;;28.85;100.00;100350.53;5049109;28;20423;-74
2023/06/30 10:05:31;;;;;;;;;;;;;;;29.47;100.00;100341.72;5032033;28;20354;-74
2023/06/30 10:07:59;;;;;;;;;;;;;;;30.07;100.00;100355.66;5032933;28;19916;-74
2023/06/30 10:10:24;;;;;;;;;;;;;;;29.85;100.00;100360.44;5050216;28;19934;-73
2023/06/30 10:12:50;;;;;;;;;;;;;;;30.08;100.00;100342.38;5051224;28;20011;-73
2023/06/30 10:15:15;;;;;;;;;;;;;;;29.32;100.00;100330.97;5051076;28;19904;-75
2023/06/30 10:17:43;;;;;;;;;;;;;;;30.36;100.00;100335.91;5050713;28;19913;-74
2023/06/30 10:20:08;;;;;;;;;;;;;;;29.11;100.00;100312.13;5048674;28;20303;-74
2023/06/30 10:22:34;;;;;;;;;;;;;;;28.76;100.00;100312.19;5050363;28;19909;-75
2023/06/30 10:25:00;;;;;;;;;;;;;;;28.55;100.00;100309.84;5050197;28;19916;-75
2023/06/30 10:27:25;;;;;;;;;;;;;;;28.44;100.00;100304.81;5050404;28;19913;-75
2023/06/30 10:29:51;;;;;;;;;;;;;;;30.01;100.00;100325.59;5048922;28;19912;-72
2023/06/30 10:32:20;;;;;;;;;;;;;;;29.55;100.00;100313.75;5020341;28;19917;-73
2023/06/30 10:35:04;;;;;;;;;;;;;;;28.98;100.00;100319.53;5028320;28;19912;-74
2023/06/30 10:37:30;;;;;;;;;;;;;;;29.77;100.00;100325.53;5035996;28;19909;-74
2023/06/30 10:39:55;;;;;;;;;;;;;;;30.06;100.00;100315.47;5049686;28;19909;-74
2023/06/30 10:42:20;;;;;;;;;;;;;;;29.90;100.00;100305.75;5048537;28;19958;-74
2023/06/30 10:44:47;;;;;;;;;;;;;;;30.70;100.00;100299.84;5028180;28;19932;-73
2023/06/30 10:47:13;;;;;;;;;;;;;;;30.65;100.00;100296.06;5046125;28;20279;-73
2023/06/30 10:49:40;;;;;;;;;;;;;;;30.21;100.00;100276.31;5047633;28;19916;-76
2023/06/30 10:52:23;;;;;;;;;;;;;;;30.94;100.00;100299.03;5037756;28;19913;-73
2023/06/30 10:54:49;;;;;;;;;;;;;;;31.04;100.00;100293.63;5029931;28;19967;-74
2023/06/30 10:57:19;;;;;;;;;;;;;;;31.04;100.00;100291.00;5030661;28;19909;-80
2023/06/30 11:02:55;;;;;;;;;;;;;;;29.60;100.00;100272.13;5032498;28;19968;-72
2023/06/30 11:08:23;;;;;;;;;;;;;;;30.60;100.00;100286.03;5032244;28;20000;-71
2023/06/30 11:14:02;;;;;;;;;;;;;;;30.69;100.00;100277.19;5032116;28;20006;-71
2023/06/30 11:16:29;;;;;;;;;;;;;;;29.57;100.00;100275.09;5032824;28;20044;-74
2023/06/30 11:19:00;;;;;;;;;;;;;;;29.70;100.00;100269.38;5031725;28;19974;-81
2023/06/30 11:24:28;;;;;;;;;;;;;;;30.06;100.00;100244.63;5033875;28;20011;-74
2023/06/30 11:29:59;;;;;;;;;;;;;;;29.82;100.00;100255.03;5033571;28;19959;-75
2023/06/30 11:32:27;;;;;;;;;;;;;;;29.55;100.00;100265.72;5033407;28;19955;-75
2023/06/30 11:34:54;;;;;;;;;;;;;;;29.47;100.00;100245.56;5033399;28;19916;-75
2023/06/30 11:37:21;;;;;;;;;;;;;;;29.50;100.00;100242.59;5015397;28;20398;-76
2023/06/30 11:39:51;;;;;;;;;;;;;;;29.78;100.00;100233.56;5014940;28;19909;-74
2023/06/30 11:42:16;;;;;;;;;;;;;;;30.25;100.00;100238.28;5015927;28;19925;-74
2023/06/30 11:44:42;;;;;;;;;;;;;;;30.70;100.00;100239.44;5014745;28;19913;-74
2023/06/30 11:50:10;;;;;;;;;;;;;;;30.87;100.00;100235.03;5035029;28;20215;-74
2023/06/30 11:52:36;;;;;;;;;;;;;;;30.27;100.00;100216.09;5019271;28;19913;-75
2023/06/30 11:55:08;;;;;;;;;;;;;;;30.30;100.00;100209.75;5018869;28;19905;-75
2023/06/30 11:57:34;;;;;;;;;;;;;;;30.79;100.00;100229.75;5019301;28;19913;-75
2023/06/30 12:00:06;;;;;;;;;;;;;;;30.68;100.00;100215.13;5018962;28;19909;-75
2023/06/30 12:02:32;;;;;;;;;;;;;;;30.66;100.00;100213.69;5019171;28;19916;-75
2023/06/30 12:04:57;;;;;;;;;;;;;;;30.87;100.00;100221.06;5035590;28;19909;-77
2023/06/30 12:07:22;;;;;;;;;;;;;;;29.97;100.00;100202.78;5034651;28;19913;-75
2023/06/30 12:09:58;;;;;;;;;;;;;;;29.67;100.00;100185.81;5018079;28;19924;-75
2023/06/30 12:12:30;;;;;;;;;;;;;;;30.13;100.00;100201.00;5018849;28;19916;-75
2023/06/30 12:14:56;;;;;;;;;;;;;;;30.57;100.00;100206.78;5033025;28;19909;-76
2023/06/30 12:17:24;;;;;;;;;;;;;;;30.49;100.00;100197.13;5035819;28;20276;-75
2023/06/30 12:19:50;;;;;;;;;;;;;;;30.01;100.00;100168.19;5036658;28;19909;-75
2023/06/30 12:25:18;;;;;;;;;;;;;;;29.79;100.00;100203.72;5036989;28;19934;-75
2023/06/30 12:27:44;;;;;;;;;;;;;;;30.49;100.00;100205.00;5036375;28;19909;-75
2023/06/30 12:30:16;;;;;;;;;;;;;;;31.46;100.00;100203.00;5034736;28;19912;-74
2023/06/30 12:32:43;;;;;;;;;;;;;;;31.63;100.00;100197.69;5018066;28;19909;-75
2023/06/30 12:38:13;;;;;;;;;;;;;;;30.20;100.00;100170.50;5035407;28;19912;-74
2023/06/30 12:40:39;;;;;;;;;;;;;;;30.36;100.00;100165.31;5034155;28;20252;-75
2023/06/30 12:43:04;;;;;;;;;;;;;;;30.53;100.00;100176.59;5035098;28;19913;-74
2023/06/30 12:45:29;;;;;;;;;;;;;;;30.25;100.00;100162.16;5034470;28;19909;-75
2023/06/30 12:47:55;;;;;;;;;;;;;;;30.38;100.00;100167.75;5036478;28;19909;-73
2023/06/30 12:50:20;;;;;;;;;;;;;;;31.16;100.00;100177.47;5017775;28;19913;-78
2023/06/30 12:52:46;;;;;;;;;;;;;;;30.65;100.00;100164.75;5035259;28;20335;-74
2023/06/30 12:55:11;;;;;;;;;;;;;;;31.36;100.00;100155.03;5034763;28;19905;-74
2023/06/30 13:00:39;;;;;;;;;;;;;;;31.15;100.00;100138.22;5035668;28;19931;-74
2023/06/30 13:03:05;;;;;;;;;;;;;;;30.93;100.00;100131.06;5034345;28;20352;-74
2023/06/30 13:05:30;;;;;;;;;;;;;;;31.36;100.00;100135.81;5035560;28;19955;-74
2023/06/30 13:07:55;;;;;;;;;;;;;;;29.95;100.00;100117.19;5034698;28;19951;-74
2023/06/30 13:10:21;;;;;;;;;;;;;;;30.65;100.00;100120.13;5034888;28;19913;-75
2023/06/30 13:12:46;;;;;;;;;;;;;;;31.49;100.00;100149.25;5033789;28;19919;-76
2023/06/30 13:15:11;;;;;;;;;;;;;;;31.49;100.00;100138.75;5034111;28;19909;-73
2023/06/30 13:17:37;;;;;;;;;;;;;;;30.21;100.00;100138.03;5040655;28;19909;-75
2023/06/30 13:23:05;;;;;;;;;;;;;;;30.64;100.00;100139.50;5045250;28;19911;-75
2023/06/30 13:25:30;;;;;;;;;;;;;;;29.94;100.00;100135.72;5033972;28;19940;-76
2023/06/30 13:27:56;;;;;;;;;;;;;;;29.73;100.00;100135.38;5035464;28;19916;-75
2023/06/30 13:30:21;;;;;;;;;;;;;;;29.54;100.00;100139.06;5035419;28;19916;-75
2023/06/30 13:32:46;;;;;;;;;;;;;;;29.68;100.00;100132.38;5034339;28;20374;-77
2023/06/30 13:35:12;;;;;;;;;;;;;;;29.81;100.00;100120.47;5033799;28;19912;-75
2023/06/30 13:37:38;;;;;;;;;;;;;;;30.30;100.00;100137.09;5033621;28;19909;-75
2023/06/30 13:40:04;;;;;;;;;;;;;;;30.40;100.00;100118.53;5033729;28;19916;-76
2023/06/30 13:42:30;;;;;;;;;;;;;;;30.82;100.00;100139.28;5016693;28;20363;-74
2023/06/30 13:44:55;;;;;;;;;;;;;;;30.48;100.00;100106.22;5017112;28;20387;-77
2023/06/30 13:47:21;;;;;;;;;;;;;;;30.80;100.00;100121.06;5017317;28;20314;-74
2023/06/30 13:49:46;;;;;;;;;;;;;;;31.04;100.00;100112.31;5032878;28;19963;-75
2023/06/30 13:55:14;;;;;;;;;;;;;;;30.06;100.00;100086.38;5034862;28;20394;-73
2023/06/30 14:00:46;;;;;;;;;;;;;;;30.84;100.00;100104.03;5034255;28;19916;-74
2023/06/30 14:03:11;;;;;;;;;;;;;;;31.24;100.00;100097.75;5015912;28;19944;-73
2023/06/30 14:05:37;;;;;;;;;;;;;;;30.48;100.00;100087.84;5016360;28;19994;-74
2023/06/30 14:08:02;;;;;;;;;;;;;;;30.96;100.00;100091.34;5016085;28;19920;-75
2023/06/30 14:13:31;;;;;;;;;;;;;;;30.36;100.00;100080.47;5033973;28;20004;-77
2023/06/30 14:15:56;;;;;;;;;;;;;;;30.25;100.00;100075.56;5032951;28;19960;-76
2023/06/30 14:18:21;;;;;;;;;;;;;;;31.23;100.00;100080.34;5033933;28;19908;-76
2023/06/30 14:20:47;;;;;;;;;;;;;;;30.06;100.00;100068.00;5032817;28;19952;-74
2023/06/30 14:26:15;;;;;;;;;;;;;;;30.66;100.00;100066.63;5033766;28;19915;-74
2023/06/30 14:28:40;;;;;;;;;;;;;;;30.68;100.00;100078.56;5015437;28;19905;-74
2023/06/30 14:31:07;;;;;;;;;;;;;;;30.34;100.00;100064.91;5032381;28;20414;-75
2023/06/30 14:33:32;;;;;;;;;;;;;;;30.85;100.00;100083.81;5032451;28;19916;-74
2023/06/30 14:39:00;;;;;;;;;;;;;;;31.26;100.00;100072.94;5034069;28;19916;-74
2023/06/30 14:41:25;;;;;;;;;;;;;;;31.57;100.00;100062.44;5033225;28;19909;-73
2023/06/30 14:43:51;;;;;;;;;;;;;;;31.02;100.00;100053.88;5032064;28;20007;-73
2023/06/30 14:46:16;;;;;;;;;;;;;;;31.07;100.00;100049.72;5032370;28;20279;-77
2023/06/30 14:48:41;;;;;;;;;;;;;;;31.56;100.00;100055.53;5033161;28;20004;-74
2023/06/30 14:51:06;;;;;;;;;;;;;;;30.66;100.00;100043.78;5033620;28;19975;-74
2023/06/30 14:53:32;;;;;;;;;;;;;;;30.84;100.00;100038.34;5032534;28;19948;-74
2023/06/30 14:55:58;;;;;;;;;;;;;;;29.88;100.00;100041.97;5032319;28;19900;-74
2023/06/30 15:01:26;;;;;;;;;;;;;;;31.14;100.00;100055.13;5034316;28;19955;-75
2023/06/30 15:03:51;;;;;;;;;;;;;;;31.11;100.00;100051.03;5033317;28;19909;-76
2023/06/30 15:06:16;;;;;;;;;;;;;;;31.25;100.00;100038.94;5032624;28;19913;-76
2023/06/30 15:08:42;;;;;;;;;;;;;;;31.21;100.00;100042.91;5033392;28;20016;-74
2023/06/30 15:14:10;;;;;;;;;;;;;;;30.18;100.00;100038.66;5033715;28;19958;-74
2023/06/30 15:16:35;;;;;;;;;;;;;;;30.37;100.00;100032.22;5015205;28;19909;-74
2023/06/30 15:19:00;;;;;;;;;;;;;;;30.91;100.00;100064.75;5015156;28;19915;-75